Time;durP1;ratioP1;P1;durP2;ratioP2;P2;SDS_P1;SDS_P2;PMS_P1;PMS_P2;Temp;Humidity;BMP_temperature;BMP_pressure;BME280_temperature;BME280_humidity;BME280_pressure;Samples;Min_cycle;Max_cycle;Signal;HPM_P1;HPM_P2
2021/11/30 00:00:00;;;;;;;65.97;62.65;;;;;;;;;;4988560;28;20036;-70
2021/11/30 00:02:29;;;;;;;65.00;61.25;;;;;;;;;;4981561;28;20035;-69
2021/11/30 00:04:55;;;;;;;64.00;60.35;;;;;;;;;;4987227;28;20181;-69
2021/11/30 00:07:21;;;;;;;63.28;59.58;;;;;;;;;;4988156;28;20032;-70
2021/11/30 00:12:13;;;;;;;61.45;57.25;;;;;;;;;;4988418;28;20048;-69
2021/11/30 00:14:40;;;;;;;59.97;56.72;;;;;;;;;;4990057;28;20486;-69
2021/11/30 00:17:07;;;;;;;59.92;56.80;;;;;;;;;;4986730;28;20056;-70
2021/11/30 00:19:34;;;;;;;60.65;57.35;;;;;;;;;;4987082;28;20049;-70
2021/11/30 00:22:01;;;;;;;60.63;56.58;;;;;;;;;;4988311;28;20044;-69
2021/11/30 00:24:29;;;;;;;61.35;58.05;;;;;;;;;;4972642;28;20068;-69
2021/11/30 00:26:55;;;;;;;60.83;57.60;;;;;;;;;;4989001;28;20022;-70
2021/11/30 00:29:22;;;;;;;66.18;61.80;;;;;;;;;;4983595;28;20416;-70
2021/11/30 00:31:48;;;;;;;60.65;56.75;;;;;;;;;;4989422;28;20059;-71
2021/11/30 00:34:14;;;;;;;64.88;60.38;;;;;;;;;;4993080;28;20576;-69
2021/11/30 00:36:40;;;;;;;65.30;61.10;;;;;;;;;;4993640;28;20318;-70
2021/11/30 00:39:06;;;;;;;60.28;57.10;;;;;;;;;;4991450;28;20037;-69
2021/11/30 00:41:33;;;;;;;62.95;59.42;;;;;;;;;;4992203;28;20498;-70
2021/11/30 00:43:59;;;;;;;59.83;55.78;;;;;;;;;;4993202;28;20182;-70
2021/11/30 00:46:35;;;;;;;61.45;57.40;;;;;;;;;;4994098;28;20030;-69
2021/11/30 00:49:03;;;;;;;59.45;55.35;;;;;;;;;;4970841;28;20029;-71
2021/11/30 00:51:30;;;;;;;64.05;59.70;;;;;;;;;;4974522;28;20146;-70
2021/11/30 00:53:56;;;;;;;66.05;60.95;;;;;;;;;;4991357;28;20049;-70
2021/11/30 00:56:22;;;;;;;61.97;57.67;;;;;;;;;;4990489;28;20518;-70
2021/11/30 00:58:48;;;;;;;63.63;59.65;;;;;;;;;;4990576;28;20524;-70
2021/11/30 01:01:15;;;;;;;62.00;56.97;;;;;;;;;;4991416;28;20142;-70
2021/11/30 01:03:41;;;;;;;58.28;54.30;;;;;;;;;;4991643;28;20454;-70
2021/11/30 01:06:07;;;;;;;63.03;58.45;;;;;;;;;;4993265;28;20047;-70
2021/11/30 01:08:34;;;;;;;63.22;58.47;;;;;;;;;;4989868;28;20037;-70
2021/11/30 01:11:00;;;;;;;61.20;56.67;;;;;;;;;;4993592;28;20150;-70
2021/11/30 01:13:29;;;;;;;67.10;62.35;;;;;;;;;;4995578;28;20410;-70
2021/11/30 01:15:55;;;;;;;64.47;60.08;;;;;;;;;;4976180;28;20526;-70
2021/11/30 01:18:21;;;;;;;63.15;58.65;;;;;;;;;;4987201;28;20053;-71
2021/11/30 01:20:47;;;;;;;60.08;55.47;;;;;;;;;;4990921;28;20044;-71
2021/11/30 01:23:14;;;;;;;60.90;56.38;;;;;;;;;;4970273;28;20045;-71
2021/11/30 01:25:40;;;;;;;64.85;59.90;;;;;;;;;;4975443;28;20064;-70
2021/11/30 01:28:06;;;;;;;64.25;59.40;;;;;;;;;;4971196;28;20026;-70
2021/11/30 01:30:32;;;;;;;62.28;57.20;;;;;;;;;;4992732;28;20084;-70
2021/11/30 01:32:59;;;;;;;59.13;54.90;;;;;;;;;;4990239;28;20044;-71
2021/11/30 01:35:25;;;;;;;57.72;53.78;;;;;;;;;;4993059;28;20052;-70
2021/11/30 01:37:51;;;;;;;58.05;53.95;;;;;;;;;;4986772;28;20033;-71
2021/11/30 01:40:19;;;;;;;56.15;51.85;;;;;;;;;;4983228;28;20049;-70
2021/11/30 01:42:47;;;;;;;55.80;51.45;;;;;;;;;;4983501;28;20026;-71
2021/11/30 01:49:10;;;;;;;56.05;51.83;;;;;;;;;;4983946;28;20541;-70
2021/11/30 01:50:45;;;;;;;53.28;49.47;;;;;;;;;;4991715;28;20082;-71
2021/11/30 01:53:11;;;;;;;50.63;47.17;;;;;;;;;;4990568;28;20088;-71
2021/11/30 01:55:37;;;;;;;52.10;48.22;;;;;;;;;;5001170;28;20098;-70
2021/11/30 01:58:04;;;;;;;54.65;49.83;;;;;;;;;;4967833;28;20049;-72
2021/11/30 02:00:34;;;;;;;54.25;49.35;;;;;;;;;;4972585;28;20512;-69
2021/11/30 02:03:00;;;;;;;51.45;47.78;;;;;;;;;;4990442;28;20053;-73
2021/11/30 02:05:26;;;;;;;53.30;48.13;;;;;;;;;;4992132;28;20029;-71
2021/11/30 02:07:52;;;;;;;49.67;45.72;;;;;;;;;;4971106;28;20039;-70
2021/11/30 02:10:19;;;;;;;51.10;47.17;;;;;;;;;;4992032;28;20067;-70
2021/11/30 02:12:45;;;;;;;48.67;44.25;;;;;;;;;;4989502;28;20432;-70
2021/11/30 02:15:12;;;;;;;51.10;46.30;;;;;;;;;;4992927;28;20030;-71
2021/11/30 02:17:38;;;;;;;47.13;42.75;;;;;;;;;;4988570;28;20044;-70
2021/11/30 02:20:05;;;;;;;48.75;44.42;;;;;;;;;;4989029;28;20767;-73
2021/11/30 02:22:31;;;;;;;46.83;42.83;;;;;;;;;;4991036;28;20050;-70
2021/11/30 02:24:57;;;;;;;43.22;39.55;;;;;;;;;;4989251;28;20052;-72
2021/11/30 02:27:23;;;;;;;43.85;40.42;;;;;;;;;;4990594;28;20147;-71
2021/11/30 02:29:50;;;;;;;41.85;37.42;;;;;;;;;;4989375;28;20115;-70
2021/11/30 02:32:18;;;;;;;40.13;36.65;;;;;;;;;;4991945;28;20049;-71
2021/11/30 02:34:45;;;;;;;42.53;38.25;;;;;;;;;;4991481;28;20454;-71
2021/11/30 02:37:16;;;;;;;43.20;39.20;;;;;;;;;;4991465;28;20080;-72
2021/11/30 02:39:43;;;;;;;37.50;34.83;;;;;;;;;;4986875;28;20027;-73
2021/11/30 02:42:10;;;;;;;39.45;35.58;;;;;;;;;;4989363;28;20038;-71
2021/11/30 02:44:37;;;;;;;39.13;35.35;;;;;;;;;;4989346;28;20085;-72
2021/11/30 02:47:08;;;;;;;37.38;33.97;;;;;;;;;;4991019;28;20022;-71
2021/11/30 02:49:37;;;;;;;34.72;31.77;;;;;;;;;;4986493;28;20088;-72
2021/11/30 02:52:06;;;;;;;35.83;32.17;;;;;;;;;;4991137;28;20080;-70
2021/11/30 02:54:34;;;;;;;38.00;33.97;;;;;;;;;;4970437;28;20140;-71
2021/11/30 02:57:01;;;;;;;36.00;33.05;;;;;;;;;;4989646;28;20033;-70
2021/11/30 02:59:29;;;;;;;38.92;35.10;;;;;;;;;;4987801;28;20103;-72
2021/11/30 03:01:56;;;;;;;49.85;35.50;;;;;;;;;;4991736;28;20109;-71
2021/11/30 03:04:23;;;;;;;41.42;31.00;;;;;;;;;;4985258;28;20057;-72
2021/11/30 03:06:49;;;;;;;54.58;33.17;;;;;;;;;;4989874;28;20041;-70
2021/11/30 03:09:16;;;;;;;39.08;31.63;;;;;;;;;;4970519;28;20044;-70
2021/11/30 03:11:42;;;;;;;32.95;29.90;;;;;;;;;;4996775;28;20030;-70
2021/11/30 03:14:08;;;;;;;34.55;30.05;;;;;;;;;;4987934;28;20128;-70
2021/11/30 03:16:35;;;;;;;35.10;30.45;;;;;;;;;;4981584;28;20048;-71
2021/11/30 03:19:02;;;;;;;33.75;29.38;;;;;;;;;;4986103;28;20032;-70
2021/11/30 03:21:28;;;;;;;37.30;30.67;;;;;;;;;;4989241;28;20049;-71
2021/11/30 03:23:54;;;;;;;36.83;29.70;;;;;;;;;;4990511;28;20041;-70
2021/11/30 03:26:20;;;;;;;34.70;30.90;;;;;;;;;;4974757;28;20123;-70
2021/11/30 03:28:46;;;;;;;35.55;31.70;;;;;;;;;;4987987;28;20128;-70
2021/11/30 03:34:05;;;;;;;35.85;29.00;;;;;;;;;;4985162;28;20047;-71
2021/11/30 03:36:32;;;;;;;41.10;30.17;;;;;;;;;;4982091;28;20524;-70
2021/11/30 03:38:59;;;;;;;40.17;27.25;;;;;;;;;;4986926;28;20053;-71
2021/11/30 03:41:28;;;;;;;27.63;25.25;;;;;;;;;;4989001;28;20424;-71
2021/11/30 03:43:54;;;;;;;37.05;27.70;;;;;;;;;;4989495;28;20026;-70
2021/11/30 03:46:20;;;;;;;47.28;26.13;;;;;;;;;;4990215;28;20044;-70
2021/11/30 03:48:46;;;;;;;53.75;26.90;;;;;;;;;;4971036;28;20040;-70
2021/11/30 03:51:12;;;;;;;52.42;27.40;;;;;;;;;;4983322;28;20527;-72
2021/11/30 03:53:38;;;;;;;41.55;25.58;;;;;;;;;;4982442;28;20204;-71
2021/11/30 03:56:05;;;;;;;31.15;24.48;;;;;;;;;;4990284;28;20033;-71
2021/11/30 03:58:31;;;;;;;48.80;28.17;;;;;;;;;;4986857;28;20030;-70
2021/11/30 04:00:57;;;;;;;33.63;23.55;;;;;;;;;;4984607;28;20025;-70
2021/11/30 04:03:24;;;;;;;44.05;28.13;;;;;;;;;;4988890;28;20057;-71
2021/11/30 04:05:50;;;;;;;36.17;27.13;;;;;;;;;;4986532;28;20034;-70
2021/11/30 04:08:16;;;;;;;38.50;24.83;;;;;;;;;;4988321;28;20040;-71
2021/11/30 04:10:42;;;;;;;35.22;27.55;;;;;;;;;;4985812;28;20034;-71
2021/11/30 04:13:08;;;;;;;28.83;24.77;;;;;;;;;;4970928;28;20033;-69
2021/11/30 04:15:34;;;;;;;43.80;27.10;;;;;;;;;;4987899;28;20027;-69
2021/11/30 04:18:00;;;;;;;27.85;24.73;;;;;;;;;;4987940;28;20026;-70
2021/11/30 04:20:26;;;;;;;37.90;28.30;;;;;;;;;;4986502;28;20058;-70
2021/11/30 04:22:52;;;;;;;40.92;27.27;;;;;;;;;;4990296;28;20041;-69
2021/11/30 04:25:18;;;;;;;38.65;27.73;;;;;;;;;;4972777;28;20551;-71
2021/11/30 04:27:44;;;;;;;43.50;27.98;;;;;;;;;;4985994;28;20201;-70
2021/11/30 04:30:11;;;;;;;47.88;26.30;;;;;;;;;;4970807;28;20077;-70
2021/11/30 04:32:37;;;;;;;29.73;24.15;;;;;;;;;;4984671;28;20105;-70
2021/11/30 04:35:04;;;;;;;41.17;26.80;;;;;;;;;;4974163;28;20029;-70
2021/11/30 04:37:30;;;;;;;36.90;24.10;;;;;;;;;;4988343;28;20034;-70
2021/11/30 04:39:56;;;;;;;38.17;26.08;;;;;;;;;;4988234;28;20069;-70
2021/11/30 04:42:26;;;;;;;33.15;23.23;;;;;;;;;;4984536;28;20517;-69
2021/11/30 04:44:59;;;;;;;45.33;24.77;;;;;;;;;;4987285;28;20212;-70
2021/11/30 04:47:27;;;;;;;39.53;26.83;;;;;;;;;;4991497;28;20486;-70
2021/11/30 04:49:57;;;;;;;42.55;26.60;;;;;;;;;;4987344;28;20042;-71
2021/11/30 04:52:23;;;;;;;27.90;21.95;;;;;;;;;;4989777;28;20125;-71
2021/11/30 04:54:49;;;;;;;50.15;26.48;;;;;;;;;;4968712;28;20034;-71
2021/11/30 04:57:15;;;;;;;54.33;29.02;;;;;;;;;;4985688;28;20038;-70
2021/11/30 04:59:42;;;;;;;44.67;26.88;;;;;;;;;;4986512;28;20036;-70
2021/11/30 05:02:08;;;;;;;47.97;27.02;;;;;;;;;;4972602;28;20055;-70
2021/11/30 05:04:34;;;;;;;43.45;24.75;;;;;;;;;;4988571;28;20053;-70
2021/11/30 05:07:00;;;;;;;35.15;25.48;;;;;;;;;;4986535;28;20048;-71
2021/11/30 05:09:26;;;;;;;46.25;25.30;;;;;;;;;;4983114;28;20019;-70
2021/11/30 05:11:52;;;;;;;48.42;27.58;;;;;;;;;;4985275;28;20445;-70
2021/11/30 05:14:18;;;;;;;44.22;27.83;;;;;;;;;;4990316;28;20030;-70
2021/11/30 05:16:45;;;;;;;38.25;27.67;;;;;;;;;;4970168;28;20048;-69
2021/11/30 05:19:11;;;;;;;45.65;27.65;;;;;;;;;;4987060;28;20040;-69
2021/11/30 05:21:37;;;;;;;51.92;27.60;;;;;;;;;;4991089;28;20049;-70
2021/11/30 05:24:05;;;;;;;57.40;31.33;;;;;;;;;;4977911;28;20112;-70
2021/11/30 05:26:31;;;;;;;40.55;26.58;;;;;;;;;;4989326;28;20052;-70
2021/11/30 05:28:57;;;;;;;46.08;26.30;;;;;;;;;;4990146;28;20092;-70
2021/11/30 05:31:23;;;;;;;46.92;28.20;;;;;;;;;;4991493;28;20052;-71
2021/11/30 05:33:49;;;;;;;39.28;27.02;;;;;;;;;;4993302;28;20391;-70
2021/11/30 05:36:18;;;;;;;41.15;28.10;;;;;;;;;;4986724;28;20044;-70
2021/11/30 05:38:44;;;;;;;41.63;27.70;;;;;;;;;;4990719;28;20470;-69
2021/11/30 05:41:10;;;;;;;48.35;26.42;;;;;;;;;;4990498;28;20064;-70
2021/11/30 05:43:36;;;;;;;39.75;25.05;;;;;;;;;;4992115;28;20120;-69
2021/11/30 05:46:02;;;;;;;51.97;25.70;;;;;;;;;;4974592;28;20156;-70
2021/11/30 05:48:30;;;;;;;28.05;22.67;;;;;;;;;;4990343;28;20049;-69
2021/11/30 05:50:56;;;;;;;44.25;24.35;;;;;;;;;;4990539;28;20073;-70
2021/11/30 05:53:22;;;;;;;39.10;22.50;;;;;;;;;;4989726;28;20061;-70
2021/11/30 05:55:49;;;;;;;48.20;25.88;;;;;;;;;;4975734;28;20026;-69
2021/11/30 05:58:15;;;;;;;48.50;27.35;;;;;;;;;;4990774;28;20509;-69
2021/11/30 06:00:42;;;;;;;44.78;28.10;;;;;;;;;;4991971;28;20033;-70
2021/11/30 06:03:20;;;;;;;44.50;26.55;;;;;;;;;;4991147;28;20033;-70
2021/11/30 06:05:47;;;;;;;38.83;25.20;;;;;;;;;;4988258;28;20048;-71
2021/11/30 06:08:13;;;;;;;41.40;24.80;;;;;;;;;;4989948;28;20064;-70
2021/11/30 06:10:39;;;;;;;51.25;28.48;;;;;;;;;;4989747;28;20056;-70
2021/11/30 06:13:05;;;;;;;38.17;25.58;;;;;;;;;;4988633;28;20433;-70
2021/11/30 06:15:32;;;;;;;45.47;27.75;;;;;;;;;;4991000;28;20102;-70
2021/11/30 06:17:58;;;;;;;53.13;28.38;;;;;;;;;;4968258;28;20151;-70
2021/11/30 06:20:25;;;;;;;50.17;28.90;;;;;;;;;;4991527;28;20022;-70
2021/11/30 06:22:51;;;;;;;46.95;27.98;;;;;;;;;;4990473;28;20052;-70
2021/11/30 06:25:17;;;;;;;49.90;29.35;;;;;;;;;;4994245;28;20141;-71
2021/11/30 06:27:43;;;;;;;54.15;29.00;;;;;;;;;;4966639;28;20488;-70
2021/11/30 06:30:10;;;;;;;42.03;28.05;;;;;;;;;;4989848;28;20132;-70
2021/11/30 06:32:36;;;;;;;47.70;31.00;;;;;;;;;;5081283;23;20175;-71
2021/11/30 06:35:02;;;;;;;40.80;28.38;;;;;;;;;;4987600;28;20038;-70
2021/11/30 06:37:28;;;;;;;40.63;28.85;;;;;;;;;;4991698;28;20089;-70
2021/11/30 06:39:55;;;;;;;47.50;29.40;;;;;;;;;;4997115;28;20167;-70
2021/11/30 06:42:21;;;;;;;46.22;30.17;;;;;;;;;;4992241;28;20041;-70
2021/11/30 06:44:48;;;;;;;48.83;30.98;;;;;;;;;;4975898;28;20033;-71
2021/11/30 06:47:14;;;;;;;44.90;31.70;;;;;;;;;;4988580;28;20038;-69
2021/11/30 06:49:40;;;;;;;38.42;29.35;;;;;;;;;;4980925;28;20056;-69
2021/11/30 06:52:06;;;;;;;45.40;31.23;;;;;;;;;;4989117;28;20029;-70
2021/11/30 06:54:32;;;;;;;50.78;29.35;;;;;;;;;;4996999;28;20125;-72
2021/11/30 06:56:58;;;;;;;39.75;28.92;;;;;;;;;;4991370;28;20519;-71
2021/11/30 06:59:27;;;;;;;35.92;32.20;;;;;;;;;;4973820;28;20107;-70
2021/11/30 07:01:53;;;;;;;52.13;32.33;;;;;;;;;;4984725;28;20041;-69
2021/11/30 07:04:21;;;;;;;42.67;32.08;;;;;;;;;;4992678;28;20143;-69
2021/11/30 07:09:22;;;;;;;43.13;33.20;;;;;;;;;;4989025;28;20064;-69
2021/11/30 07:14:16;;;;;;;53.50;34.55;;;;;;;;;;4993335;28;20072;-68
2021/11/30 07:16:42;;;;;;;49.30;35.08;;;;;;;;;;4987137;28;20040;-69
2021/11/30 07:19:08;;;;;;;48.85;35.95;;;;;;;;;;4986598;28;20095;-69
2021/11/30 07:21:34;;;;;;;38.42;34.42;;;;;;;;;;4987951;28;20490;-69
2021/11/30 07:24:02;;;;;;;37.15;33.13;;;;;;;;;;4997487;28;20022;-69
2021/11/30 07:26:28;;;;;;;55.42;39.35;;;;;;;;;;4992075;28;20036;-70
2021/11/30 07:28:54;;;;;;;46.90;37.53;;;;;;;;;;4986685;28;20037;-69
2021/11/30 07:31:21;;;;;;;50.28;37.85;;;;;;;;;;4975240;28;20125;-69
2021/11/30 07:33:47;;;;;;;43.08;36.17;;;;;;;;;;4988409;28;20077;-69
2021/11/30 07:36:15;;;;;;;40.00;36.33;;;;;;;;;;4970034;28;20037;-70
2021/11/30 07:38:42;;;;;;;48.95;36.63;;;;;;;;;;4985038;28;20421;-70
2021/11/30 07:41:08;;;;;;;42.47;36.92;;;;;;;;;;4986707;28;20026;-70
2021/11/30 07:43:35;;;;;;;43.83;36.70;;;;;;;;;;4989111;28;20533;-71
2021/11/30 07:46:01;;;;;;;40.42;36.08;;;;;;;;;;4968405;28;20449;-70
2021/11/30 07:48:28;;;;;;;42.38;37.65;;;;;;;;;;4976094;28;20040;-71
2021/11/30 07:50:56;;;;;;;45.78;38.63;;;;;;;;;;4994672;28;20022;-70
2021/11/30 07:53:22;;;;;;;54.95;41.33;;;;;;;;;;4990777;28;20504;-70
2021/11/30 07:55:48;;;;;;;45.03;39.38;;;;;;;;;;4998733;28;20381;-71
2021/11/30 07:58:14;;;;;;;40.38;35.97;;;;;;;;;;4992821;28;20022;-71
2021/11/30 08:00:41;;;;;;;44.75;38.65;;;;;;;;;;4987730;28;20037;-71
2021/11/30 08:03:07;;;;;;;46.78;37.58;;;;;;;;;;4988414;28;20357;-72
2021/11/30 08:05:33;;;;;;;41.88;37.92;;;;;;;;;;4970403;28;20031;-70
2021/11/30 08:07:59;;;;;;;50.33;38.65;;;;;;;;;;4990970;28;20026;-70
2021/11/30 08:10:28;;;;;;;42.17;38.08;;;;;;;;;;4989284;28;20076;-70
2021/11/30 08:12:55;;;;;;;45.47;40.88;;;;;;;;;;4989487;28;20099;-71
2021/11/30 08:15:21;;;;;;;48.78;38.65;;;;;;;;;;4988416;28;20292;-70
2021/11/30 08:17:48;;;;;;;42.05;38.42;;;;;;;;;;4971153;28;20037;-70
2021/11/30 08:20:14;;;;;;;49.50;39.85;;;;;;;;;;4992949;28;20085;-70
2021/11/30 08:22:40;;;;;;;44.05;37.85;;;;;;;;;;4973311;28;20034;-70
2021/11/30 08:25:07;;;;;;;43.55;37.70;;;;;;;;;;4993677;28;20085;-70
2021/11/30 08:27:33;;;;;;;53.08;37.40;;;;;;;;;;4972377;28;20019;-70
2021/11/30 08:29:59;;;;;;;43.15;38.67;;;;;;;;;;4987631;28;20049;-70
2021/11/30 08:32:26;;;;;;;44.20;38.13;;;;;;;;;;4997433;28;20036;-69
2021/11/30 08:34:53;;;;;;;38.90;34.80;;;;;;;;;;4976559;28;20057;-70
2021/11/30 08:37:20;;;;;;;41.22;34.63;;;;;;;;;;4987411;28;20069;-70
2021/11/30 08:39:49;;;;;;;43.65;35.20;;;;;;;;;;4986184;28;20026;-69
2021/11/30 08:42:16;;;;;;;39.38;35.08;;;;;;;;;;4971497;28;20080;-70
2021/11/30 08:44:42;;;;;;;54.95;34.78;;;;;;;;;;4986991;28;20057;-71
2021/11/30 08:47:10;;;;;;;41.50;33.10;;;;;;;;;;4986067;28;20022;-70
2021/11/30 08:49:37;;;;;;;42.20;33.22;;;;;;;;;;4988316;28;20071;-70
2021/11/30 08:52:03;;;;;;;43.13;36.67;;;;;;;;;;4999556;28;20279;-70
2021/11/30 08:54:30;;;;;;;42.83;33.70;;;;;;;;;;4975932;28;20476;-71
2021/11/30 08:56:56;;;;;;;38.70;33.40;;;;;;;;;;4977534;28;20026;-70
2021/11/30 08:59:23;;;;;;;43.25;36.30;;;;;;;;;;4988865;28;20026;-70
2021/11/30 09:01:49;;;;;;;45.53;35.38;;;;;;;;;;4973752;28;20092;-70
2021/11/30 09:04:15;;;;;;;48.35;32.95;;;;;;;;;;4990995;28;20457;-70
2021/11/30 09:06:42;;;;;;;43.40;36.03;;;;;;;;;;4990679;28;20029;-70
2021/11/30 09:09:08;;;;;;;44.80;35.22;;;;;;;;;;4987805;28;20018;-71
2021/11/30 09:11:35;;;;;;;46.15;35.70;;;;;;;;;;4993334;28;20105;-70
2021/11/30 09:14:01;;;;;;;49.78;37.38;;;;;;;;;;4997028;28;20018;-71
2021/11/30 09:16:27;;;;;;;46.90;37.85;;;;;;;;;;4993737;28;20053;-71
2021/11/30 09:18:54;;;;;;;40.65;36.78;;;;;;;;;;4972328;28;20104;-71
2021/11/30 09:21:20;;;;;;;40.58;36.53;;;;;;;;;;4999850;28;20156;-72
2021/11/30 09:23:47;;;;;;;38.97;35.83;;;;;;;;;;4977398;28;20030;-71
2021/11/30 09:26:13;;;;;;;39.42;36.00;;;;;;;;;;4999187;28;20045;-70
2021/11/30 09:28:40;;;;;;;44.28;39.55;;;;;;;;;;4988899;28;20026;-70
2021/11/30 09:31:07;;;;;;;42.95;38.50;;;;;;;;;;4980445;28;20026;-71
2021/11/30 09:33:34;;;;;;;44.30;38.88;;;;;;;;;;4992054;28;20042;-71
2021/11/30 09:36:00;;;;;;;43.55;39.08;;;;;;;;;;4992095;28;20026;-70
2021/11/30 09:38:26;;;;;;;45.08;39.15;;;;;;;;;;4987152;28;20034;-72
2021/11/30 09:40:57;;;;;;;43.17;38.65;;;;;;;;;;4992667;28;20108;-70
2021/11/30 09:43:24;;;;;;;50.42;38.78;;;;;;;;;;4987778;28;20034;-70
2021/11/30 09:45:50;;;;;;;42.72;38.20;;;;;;;;;;4992033;28;20056;-70
2021/11/30 09:48:16;;;;;;;45.15;40.83;;;;;;;;;;4969385;28;20027;-70
2021/11/30 09:50:45;;;;;;;45.42;41.08;;;;;;;;;;4992399;28;20401;-71
2021/11/30 09:53:11;;;;;;;46.75;42.15;;;;;;;;;;4975923;28;20042;-71
2021/11/30 09:55:39;;;;;;;47.08;42.70;;;;;;;;;;4994117;28;20031;-70
2021/11/30 09:58:05;;;;;;;45.60;41.67;;;;;;;;;;4996569;28;20205;-71
2021/11/30 10:00:33;;;;;;;45.95;41.85;;;;;;;;;;4981885;28;20026;-71
2021/11/30 10:02:59;;;;;;;45.08;40.45;;;;;;;;;;4997183;28;20029;-70
2021/11/30 10:05:26;;;;;;;45.22;40.65;;;;;;;;;;5000218;28;20481;-71
2021/11/30 10:07:54;;;;;;;49.15;42.47;;;;;;;;;;4976749;28;20476;-71
2021/11/30 10:10:22;;;;;;;41.95;38.38;;;;;;;;;;4981309;28;20030;-71
2021/11/30 10:13:00;;;;;;;46.55;42.67;;;;;;;;;;5007752;28;20036;-71
2021/11/30 10:15:27;;;;;;;50.40;45.08;;;;;;;;;;4992955;28;20073;-71
2021/11/30 10:18:13;;;;;;;44.25;39.78;;;;;;;;;;4991632;28;20035;-71
2021/11/30 10:20:39;;;;;;;45.65;40.78;;;;;;;;;;4998369;28;20039;-72
2021/11/30 10:23:05;;;;;;;60.67;43.35;;;;;;;;;;5005896;28;20030;-71
2021/11/30 10:25:35;;;;;;;47.67;43.20;;;;;;;;;;5000141;28;20033;-71
2021/11/30 10:28:11;;;;;;;48.50;42.08;;;;;;;;;;4978627;28;20085;-71
2021/11/30 10:30:38;;;;;;;46.50;42.08;;;;;;;;;;4992926;28;20025;-71
2021/11/30 10:33:09;;;;;;;46.58;42.17;;;;;;;;;;4997508;28;20048;-71
2021/11/30 10:35:35;;;;;;;47.67;41.63;;;;;;;;;;4990201;28;20042;-71
2021/11/30 10:38:03;;;;;;;48.88;41.35;;;;;;;;;;4989162;28;20296;-71
2021/11/30 10:40:30;;;;;;;47.78;43.17;;;;;;;;;;4988468;28;20036;-71
2021/11/30 10:43:00;;;;;;;50.92;41.25;;;;;;;;;;4990527;28;20085;-72
2021/11/30 10:45:29;;;;;;;45.90;41.70;;;;;;;;;;4997584;28;20501;-71
2021/11/30 10:48:09;;;;;;;48.28;43.33;;;;;;;;;;4988928;28;20014;-72
2021/11/30 10:50:37;;;;;;;45.95;41.63;;;;;;;;;;4984408;28;20096;-71
2021/11/30 10:53:13;;;;;;;49.03;41.25;;;;;;;;;;4972092;28;20629;-71
2021/11/30 10:55:39;;;;;;;45.92;39.45;;;;;;;;;;4991283;28;20251;-73
2021/11/30 10:58:05;;;;;;;46.22;42.22;;;;;;;;;;4985502;28;20022;-72
2021/11/30 11:00:33;;;;;;;45.63;41.85;;;;;;;;;;4991975;28;20085;-71
2021/11/30 11:05:28;;;;;;;50.20;45.13;;;;;;;;;;5002518;28;20452;-72
2021/11/30 11:08:17;;;;;;;49.67;44.78;;;;;;;;;;4994816;28;20448;-72
2021/11/30 11:10:45;;;;;;;49.85;45.13;;;;;;;;;;4965808;28;20037;-72
2021/11/30 11:13:17;;;;;;;49.67;45.03;;;;;;;;;;4972418;28;20034;-72
2021/11/30 11:15:43;;;;;;;49.50;44.65;;;;;;;;;;4975670;28;20030;-72
2021/11/30 11:18:33;;;;;;;49.88;43.97;;;;;;;;;;4988492;28;20037;-72
2021/11/30 11:21:10;;;;;;;47.65;43.50;;;;;;;;;;4987746;28;20043;-72
2021/11/30 11:23:41;;;;;;;49.15;44.70;;;;;;;;;;4989458;28;20397;-72
2021/11/30 11:26:34;;;;;;;47.88;43.30;;;;;;;;;;4987469;28;20567;-71
2021/11/30 11:29:02;;;;;;;49.85;43.53;;;;;;;;;;4990246;28;20042;-72
2021/11/30 11:31:29;;;;;;;49.78;45.03;;;;;;;;;;4992573;28;20042;-72
2021/11/30 11:33:57;;;;;;;48.83;44.35;;;;;;;;;;4987560;28;20082;-71
2021/11/30 11:36:24;;;;;;;49.85;45.63;;;;;;;;;;4975037;28;20080;-71
2021/11/30 11:38:50;;;;;;;51.50;46.83;;;;;;;;;;4988702;28;20022;-72
2021/11/30 11:41:16;;;;;;;52.00;47.05;;;;;;;;;;4996894;28;20041;-73
2021/11/30 11:43:42;;;;;;;51.20;45.88;;;;;;;;;;4994723;28;20121;-71
2021/11/30 11:46:13;;;;;;;51.35;45.30;;;;;;;;;;4999359;28;20118;-72
2021/11/30 11:48:39;;;;;;;55.00;49.97;;;;;;;;;;4980176;28;20682;-71
2021/11/30 11:51:06;;;;;;;54.75;49.67;;;;;;;;;;4966825;28;20022;-72
2021/11/30 11:53:34;;;;;;;53.22;48.65;;;;;;;;;;4972004;28;20038;-71
2021/11/30 11:56:11;;;;;;;58.22;52.05;;;;;;;;;;4979139;28;20038;-72
2021/11/30 11:58:39;;;;;;;51.95;46.65;;;;;;;;;;4999854;28;20040;-72
2021/11/30 12:01:05;;;;;;;55.28;48.13;;;;;;;;;;4979069;28;20167;-72
2021/11/30 12:04:00;;;;;;;57.28;49.40;;;;;;;;;;4990705;28;20034;-73
2021/11/30 12:06:28;;;;;;;54.35;49.08;;;;;;;;;;4954757;28;20151;-72
2021/11/30 12:09:16;;;;;;;52.47;48.20;;;;;;;;;;4984364;28;20055;-72
2021/11/30 12:11:47;;;;;;;59.00;53.40;;;;;;;;;;4998460;28;20184;-73
2021/11/30 12:14:15;;;;;;;58.13;52.27;;;;;;;;;;4976990;28;20144;-72
2021/11/30 12:17:00;;;;;;;59.70;54.00;;;;;;;;;;4989322;28;20343;-73
2021/11/30 12:19:27;;;;;;;56.90;51.20;;;;;;;;;;4986800;28;20517;-74
2021/11/30 12:21:53;;;;;;;56.30;50.95;;;;;;;;;;4991793;28;20022;-74
2021/11/30 12:24:36;;;;;;;57.17;51.97;;;;;;;;;;4990706;28;20033;-73
2021/11/30 12:27:22;;;;;;;58.60;50.03;;;;;;;;;;4995281;28;20045;-73
2021/11/30 12:29:49;;;;;;;56.05;48.78;;;;;;;;;;4994764;28;20021;-74
2021/11/30 12:32:34;;;;;;;53.53;48.80;;;;;;;;;;4997876;28;20033;-75
2021/11/30 12:35:06;;;;;;;55.75;50.15;;;;;;;;;;4987605;28;20043;-73
2021/11/30 12:37:32;;;;;;;;;;;;;;;;;;4997300;28;20038;-73
2021/11/30 12:40:07;;;;;;;54.63;49.53;;;;;;;;;;5000274;28;19959;-74
2021/11/30 12:42:42;;;;;;;55.80;50.50;;;;;;;;;;4974503;28;20030;-74
2021/11/30 12:45:10;;;;;;;54.60;49.63;;;;;;;;;;4993845;28;20041;-73
2021/11/30 12:47:36;;;;;;;53.47;48.38;;;;;;;;;;4973063;28;20033;-74
2021/11/30 12:50:06;;;;;;;55.95;50.78;;;;;;;;;;4974397;28;20048;-74
2021/11/30 12:52:33;;;;;;;58.20;53.67;;;;;;;;;;4993275;28;20077;-74
2021/11/30 12:55:03;;;;;;;57.45;52.45;;;;;;;;;;4976424;28;20505;-73
2021/11/30 12:57:29;;;;;;;56.75;51.40;;;;;;;;;;5004123;28;20461;-74
2021/11/30 12:59:59;;;;;;;55.58;50.80;;;;;;;;;;4996516;28;20026;-75
2021/11/30 13:02:31;;;;;;;59.63;53.65;;;;;;;;;;4995988;28;20416;-73
2021/11/30 13:04:57;;;;;;;;;;;;;;;;;;4993550;28;20060;-75
2021/11/30 13:07:25;;;;;;;59.38;54.00;;;;;;;;;;4993008;28;19960;-74
2021/11/30 13:09:53;;;;;;;57.90;53.42;;;;;;;;;;4993769;28;20015;-74
2021/11/30 13:12:20;;;;;;;59.72;55.25;;;;;;;;;;4987940;28;20501;-73
2021/11/30 13:14:47;;;;;;;56.58;51.55;;;;;;;;;;4993194;28;20030;-74
2021/11/30 13:17:14;;;;;;;59.08;53.88;;;;;;;;;;4991360;28;20196;-74
2021/11/30 13:19:42;;;;;;;61.50;56.85;;;;;;;;;;4973281;28;20056;-74
2021/11/30 13:22:08;;;;;;;62.97;57.92;;;;;;;;;;4992169;28;20030;-73
2021/11/30 13:24:37;;;;;;;63.70;58.92;;;;;;;;;;4993421;28;20030;-73
2021/11/30 13:27:15;;;;;;;66.15;61.22;;;;;;;;;;5000265;28;20035;-74
2021/11/30 13:29:55;;;;;;;63.35;57.78;;;;;;;;;;4987994;28;20020;-73
2021/11/30 13:32:25;;;;;;;58.33;53.67;;;;;;;;;;4981787;28;20037;-73
2021/11/30 13:35:11;;;;;;;58.53;53.92;;;;;;;;;;4992359;28;20129;-73
2021/11/30 13:37:39;;;;;;;56.42;52.08;;;;;;;;;;4981576;28;20125;-74
2021/11/30 13:40:08;;;;;;;60.08;52.75;;;;;;;;;;4992850;28;20089;-74
2021/11/30 13:42:47;;;;;;;57.30;51.67;;;;;;;;;;4974208;28;20038;-75
2021/11/30 13:45:13;;;;;;;56.63;52.15;;;;;;;;;;4976593;28;20045;-75
2021/11/30 13:47:49;;;;;;;54.38;49.72;;;;;;;;;;5004772;28;20056;-72
2021/11/30 13:50:16;;;;;;;57.65;53.20;;;;;;;;;;4993003;28;20025;-74
2021/11/30 13:52:42;;;;;;;57.47;52.38;;;;;;;;;;4973654;28;20026;-73
2021/11/30 13:55:08;;;;;;;61.88;55.33;;;;;;;;;;4988205;28;20018;-74
2021/11/30 13:57:35;;;;;;;66.97;54.45;;;;;;;;;;4995650;28;20033;-73
2021/11/30 14:00:02;;;;;;;63.95;53.38;;;;;;;;;;4973434;28;20034;-74
2021/11/30 14:02:39;;;;;;;54.78;49.72;;;;;;;;;;4973899;28;20113;-74
2021/11/30 14:05:06;;;;;;;57.75;52.25;;;;;;;;;;4992225;28;20037;-73
2021/11/30 14:07:37;;;;;;;55.50;50.70;;;;;;;;;;4969796;28;20085;-72
2021/11/30 14:10:05;;;;;;;55.13;50.45;;;;;;;;;;4974427;28;20149;-73
2021/11/30 14:12:31;;;;;;;55.95;51.13;;;;;;;;;;4975159;28;20296;-73
2021/11/30 14:14:59;;;;;;;61.60;55.55;;;;;;;;;;4991637;28;20034;-73
2021/11/30 14:17:27;;;;;;;53.58;49.22;;;;;;;;;;4993973;28;20034;-73
2021/11/30 14:19:53;;;;;;;55.88;51.55;;;;;;;;;;4990074;28;20030;-73
2021/11/30 14:22:21;;;;;;;56.15;51.15;;;;;;;;;;4989380;28;20034;-72
2021/11/30 14:25:01;;;;;;;56.55;52.22;;;;;;;;;;4995510;28;20588;-73
2021/11/30 14:27:31;;;;;;;57.97;53.45;;;;;;;;;;4991673;28;20104;-74
2021/11/30 14:29:57;;;;;;;59.03;53.78;;;;;;;;;;4990281;28;20037;-74
2021/11/30 14:32:25;;;;;;;59.42;54.70;;;;;;;;;;4991100;28;20037;-74
2021/11/30 14:34:53;;;;;;;60.22;55.42;;;;;;;;;;4983569;28;20041;-72
2021/11/30 14:37:19;;;;;;;62.53;57.60;;;;;;;;;;4974814;28;20042;-74